Apple River, Illinois
Current Conditions -  °F | °C
As of 1:15 PM on Saturday 25 Oct 2014 (Local Time) from KPVB Reporting Station
Clear Clear  
Wind Chill: 66°   Ceiling: Unl
Heat Index: 66°   Visibility: 10mi
Dew Point: 33°   Wind: 14mph
Humidity: 29%   Direction: 290°WNW
Pressure: 30.01"   Gusts: 20mph
Location:  42.51°N, 90.1°W
Report Text: KPVB 251815Z AUTO 29012G17KT 10SM CLR 19/00 A3001 RMK AO1 T01910004
Loading
Personal Weather Stations






























Interactive Weather Map
Tropical Storm Tracking
New forecast layout! Learn more

10-Day Weather Forecast

Advertisements
Track Severe Weather on mobile